Time;durP1;ratioP1;P1;durP2;ratioP2;P2;SDS_P1;SDS_P2;PMS_P1;PMS_P2;Temp;Humidity;BMP_temperature;BMP_pressure;BME280_temperature;BME280_humidity;BME280_pressure;Samples;Min_cycle;Max_cycle;Signal;HPM_P1;HPM_P2
2023/08/02 01:49:48;;;;;;;8.38;5.03;;;;;;;;;;5048574;27;20431;-63
2023/08/02 01:52:15;;;;;;;7.28;4.45;;;;;;;;;;5031989;28;20041;-65
2023/08/02 01:54:42;;;;;;;8.55;4.40;;;;;;;;;;5025453;28;20120;-67
2023/08/02 01:57:08;;;;;;;8.02;4.15;;;;;;;;;;5026257;28;20571;-66
2023/08/02 01:59:35;;;;;;;8.57;4.43;;;;;;;;;;5026692;28;20083;-64
2023/08/02 02:02:01;;;;;;;14.32;4.32;;;;;;;;;;5035846;28;20037;-65
2023/08/02 02:04:28;;;;;;;7.45;4.50;;;;;;;;;;5026489;28;20052;-65
2023/08/02 02:06:55;;;;;;;8.73;4.10;;;;;;;;;;5033928;28;20045;-65
2023/08/02 02:09:21;;;;;;;7.22;4.85;;;;;;;;;;5030968;28;20056;-66
2023/08/02 02:11:49;;;;;;;8.23;4.38;;;;;;;;;;5034235;28;22574;-64
2023/08/02 02:14:15;;;;;;;8.68;4.30;;;;;;;;;;5049860;28;20124;-64
2023/08/02 02:16:42;;;;;;;8.07;4.18;;;;;;;;;;5029208;28;20056;-67
2023/08/02 02:19:09;;;;;;;9.90;4.40;;;;;;;;;;5027716;28;20678;-63
2023/08/02 02:21:36;;;;;;;8.50;4.13;;;;;;;;;;5043153;28;20079;-64
2023/08/02 02:24:03;;;;;;;7.80;3.88;;;;;;;;;;5038952;28;20033;-65
2023/08/02 02:26:29;;;;;;;8.85;4.47;;;;;;;;;;5034298;28;20044;-64
2023/08/02 02:28:56;;;;;;;9.98;4.30;;;;;;;;;;5025988;28;20066;-66
2023/08/02 02:31:24;;;;;;;10.05;4.05;;;;;;;;;;5026372;28;20051;-65
2023/08/02 02:33:51;;;;;;;7.18;4.07;;;;;;;;;;5025390;28;20053;-64
2023/08/02 02:36:17;;;;;;;7.18;4.05;;;;;;;;;;5032540;28;20048;-62
2023/08/02 02:38:44;;;;;;;7.35;4.22;;;;;;;;;;5034365;28;20040;-67
2023/08/02 02:41:11;;;;;;;9.05;4.35;;;;;;;;;;5046143;28;20041;-66
2023/08/02 02:43:38;;;;;;;8.82;4.55;;;;;;;;;;5045876;28;21333;-65
2023/08/02 02:46:04;;;;;;;12.10;4.88;;;;;;;;;;5027844;28;20040;-64
2023/08/02 02:48:31;;;;;;;7.13;4.57;;;;;;;;;;5019331;28;20128;-64
2023/08/02 02:51:00;;;;;;;12.63;5.20;;;;;;;;;;5019580;28;20529;-65
2023/08/02 02:53:27;;;;;;;7.95;4.18;;;;;;;;;;5023088;28;20140;-65
2023/08/02 02:55:56;;;;;;;11.32;4.80;;;;;;;;;;5029443;28;20048;-68
2023/08/02 02:58:43;;;;;;;9.55;4.55;;;;;;;;;;5046733;28;20040;-68
2023/08/02 03:01:09;;;;;;;11.00;4.53;;;;;;;;;;5046999;28;20045;-68
2023/08/02 03:03:36;;;;;;;10.88;5.28;;;;;;;;;;5038564;28;20114;-66
2023/08/02 03:06:02;;;;;;;10.10;4.50;;;;;;;;;;5048746;28;20033;-67
2023/08/02 03:08:30;;;;;;;8.90;4.40;;;;;;;;;;5046206;28;20044;-68
2023/08/02 03:10:56;;;;;;;9.02;4.03;;;;;;;;;;5044594;28;20068;-67
2023/08/02 03:13:24;;;;;;;9.52;4.30;;;;;;;;;;5048988;28;20028;-68
2023/08/02 03:15:51;;;;;;;9.52;4.60;;;;;;;;;;5049924;28;20114;-68
2023/08/02 03:28:55;;;;;;;7.82;4.68;;;;;;;;;;5045044;27;20435;-68
2023/08/02 03:31:22;;;;;;;9.27;4.22;;;;;;;;;;5039940;28;20037;-69
2023/08/02 03:33:48;;;;;;;11.35;4.78;;;;;;;;;;5027660;28;20034;-68
2023/08/02 03:36:16;;;;;;;10.98;4.35;;;;;;;;;;5028290;28;20070;-67
2023/08/02 03:38:42;;;;;;;8.95;4.50;;;;;;;;;;5026530;28;20132;-67
2023/08/02 03:41:09;;;;;;;8.30;4.32;;;;;;;;;;5030545;28;20049;-66
2023/08/02 03:43:36;;;;;;;9.85;4.10;;;;;;;;;;5053465;28;20043;-67
2023/08/02 03:46:03;;;;;;;13.43;5.00;;;;;;;;;;5065844;28;20079;-66
2023/08/02 03:48:31;;;;;;;12.13;4.57;;;;;;;;;;5064531;28;20055;-67
2023/08/02 03:50:57;;;;;;;12.63;5.07;;;;;;;;;;5081908;28;20040;-68
2023/08/02 03:53:24;;;;;;;9.65;4.53;;;;;;;;;;5058968;28;20059;-67
2023/08/02 03:55:52;;;;;;;12.48;4.50;;;;;;;;;;5051001;28;20081;-68
2023/08/02 03:58:39;;;;;;;11.43;4.65;;;;;;;;;;5083930;28;20045;-68
2023/08/02 04:01:05;;;;;;;10.27;4.10;;;;;;;;;;5060640;28;20173;-67
2023/08/02 04:03:32;;;;;;;9.50;4.60;;;;;;;;;;5082833;28;20086;-67
2023/08/02 04:05:59;;;;;;;8.70;4.47;;;;;;;;;;5084576;28;20042;-66
2023/08/02 04:08:25;;;;;;;11.88;4.05;;;;;;;;;;5084851;28;20697;-67
2023/08/02 04:10:52;;;;;;;12.13;5.15;;;;;;;;;;5087934;28;20130;-65
2023/08/02 04:13:19;;;;;;;8.30;3.90;;;;;;;;;;5085665;28;20061;-62
2023/08/02 04:15:45;;;;;;;9.95;4.50;;;;;;;;;;5087317;28;20051;-64
2023/08/02 04:18:12;;;;;;;9.60;3.83;;;;;;;;;;5083906;28;20058;-66
2023/08/02 04:20:39;;;;;;;7.18;3.90;;;;;;;;;;5092664;28;20040;-67
2023/08/02 04:23:06;;;;;;;7.20;4.10;;;;;;;;;;5101107;28;20047;-68
2023/08/02 04:25:32;;;;;;;7.25;4.03;;;;;;;;;;5102349;28;20038;-66
2023/08/02 04:27:59;;;;;;;11.45;4.50;;;;;;;;;;5099862;28;20058;-66
2023/08/02 04:30:26;;;;;;;9.82;3.97;;;;;;;;;;5058538;28;20101;-66
2023/08/02 04:32:53;;;;;;;9.48;4.10;;;;;;;;;;5065452;28;20238;-67
2023/08/02 04:35:21;;;;;;;9.55;4.03;;;;;;;;;;5055182;28;20763;-67
2023/08/02 04:37:48;;;;;;;13.80;4.18;;;;;;;;;;5068652;28;20044;-67
2023/08/02 04:40:15;;;;;;;7.78;3.65;;;;;;;;;;5049675;28;20045;-67
2023/08/02 04:42:42;;;;;;;8.38;3.67;;;;;;;;;;5036306;28;20064;-68
2023/08/02 04:45:11;;;;;;;10.23;3.78;;;;;;;;;;5046340;28;20497;-68
2023/08/02 04:47:37;;;;;;;6.18;3.50;;;;;;;;;;5029591;28;20049;-68
2023/08/02 04:50:04;;;;;;;5.93;3.30;;;;;;;;;;5026156;28;20060;-65
2023/08/02 04:52:33;;;;;;;7.38;3.15;;;;;;;;;;5027487;28;20053;-66
2023/08/02 04:54:59;;;;;;;9.55;3.35;;;;;;;;;;5015411;28;20542;-63
2023/08/02 04:57:26;;;;;;;7.50;3.47;;;;;;;;;;5028150;28;20063;-64
2023/08/02 04:59:53;;;;;;;11.00;3.30;;;;;;;;;;5022171;28;20120;-66
2023/08/02 05:02:32;;;;;;;5.93;3.25;;;;;;;;;;5007734;28;20033;-67
2023/08/02 05:04:59;;;;;;;5.90;3.15;;;;;;;;;;5008019;28;20061;-66
2023/08/02 05:07:25;;;;;;;7.20;3.42;;;;;;;;;;5006608;28;20061;-67
2023/08/02 05:09:52;;;;;;;9.55;3.65;;;;;;;;;;5007775;28;20501;-67
2023/08/02 05:12:19;;;;;;;11.30;3.92;;;;;;;;;;5008969;28;20048;-65
2023/08/02 05:14:45;;;;;;;9.55;3.78;;;;;;;;;;5018829;28;20110;-66
2023/08/02 05:17:12;;;;;;;6.95;3.30;;;;;;;;;;5026953;28;20037;-66
2023/08/02 05:19:39;;;;;;;5.80;3.13;;;;;;;;;;5027366;28;20044;-66
2023/08/02 05:22:06;;;;;;;9.25;3.42;;;;;;;;;;5028779;28;20046;-66
2023/08/02 05:24:32;;;;;;;8.10;3.38;;;;;;;;;;5037245;28;20074;-66
2023/08/02 05:26:59;;;;;;;7.25;3.47;;;;;;;;;;5028535;28;20146;-67
2023/08/02 05:29:26;;;;;;;7.07;3.60;;;;;;;;;;5027784;28;20053;-68
2023/08/02 05:31:52;;;;;;;11.43;3.88;;;;;;;;;;5027188;28;20044;-67
2023/08/02 05:34:19;;;;;;;8.55;4.18;;;;;;;;;;5040969;28;20063;-66
2023/08/02 05:36:45;;;;;;;7.18;3.45;;;;;;;;;;5025207;28;20112;-65
2023/08/02 05:39:12;;;;;;;6.35;3.42;;;;;;;;;;5040948;28;20121;-65
2023/08/02 05:41:39;;;;;;;5.97;3.53;;;;;;;;;;5026551;28;21515;-67
2023/08/02 05:44:05;;;;;;;10.10;3.63;;;;;;;;;;5027438;28;20045;-67
2023/08/02 05:46:32;;;;;;;12.35;3.88;;;;;;;;;;5023355;28;20032;-66
2023/08/02 05:48:58;;;;;;;8.95;3.40;;;;;;;;;;5027635;28;20199;-65
2023/08/02 05:51:26;;;;;;;8.13;3.65;;;;;;;;;;5028608;28;20869;-66
2023/08/02 05:53:53;;;;;;;7.53;4.10;;;;;;;;;;5026174;28;20098;-66
2023/08/02 05:56:19;;;;;;;8.57;3.72;;;;;;;;;;5027654;28;20032;-66
2023/08/02 05:58:46;;;;;;;9.18;3.22;;;;;;;;;;5008491;28;20569;-66
2023/08/02 06:01:13;;;;;;;9.07;3.90;;;;;;;;;;5007491;28;20041;-65
2023/08/02 06:03:39;;;;;;;7.18;3.72;;;;;;;;;;5008999;28;20382;-66
2023/08/02 06:06:06;;;;;;;8.32;3.58;;;;;;;;;;5021252;28;20144;-66
2023/08/02 06:08:32;;;;;;;9.85;4.00;;;;;;;;;;5034127;28;20057;-65
2023/08/02 06:11:01;;;;;;;8.35;4.22;;;;;;;;;;5021442;28;20076;-67
2023/08/02 06:13:28;;;;;;;8.75;3.58;;;;;;;;;;5012152;28;20038;-67
2023/08/02 06:15:54;;;;;;;8.27;3.58;;;;;;;;;;5028467;28;20106;-65
2023/08/02 06:18:21;;;;;;;10.02;3.65;;;;;;;;;;5033219;28;20039;-66
2023/08/02 06:20:47;;;;;;;9.90;3.90;;;;;;;;;;5024722;28;20037;-67
2023/08/02 06:23:14;;;;;;;10.10;4.00;;;;;;;;;;5019033;28;20041;-66
2023/08/02 06:25:41;;;;;;;7.13;3.63;;;;;;;;;;5030670;28;20049;-67
2023/08/02 06:28:07;;;;;;;9.93;3.97;;;;;;;;;;5028988;28;20126;-65
2023/08/02 06:30:34;;;;;;;6.97;3.80;;;;;;;;;;5031518;28;20448;-66
2023/08/02 06:33:00;;;;;;;5.53;3.13;;;;;;;;;;5017317;28;20046;-66
2023/08/02 06:35:27;;;;;;;9.07;3.88;;;;;;;;;;5017651;28;20533;-65
2023/08/02 06:37:53;;;;;;;10.40;3.40;;;;;;;;;;5017167;28;20121;-65
2023/08/02 06:40:20;;;;;;;10.13;3.90;;;;;;;;;;5018126;28;20429;-66
2023/08/02 06:42:47;;;;;;;8.50;3.75;;;;;;;;;;5018948;28;20053;-66
2023/08/02 06:45:13;;;;;;;8.02;3.97;;;;;;;;;;5017481;28;20030;-65
2023/08/02 06:47:40;;;;;;;9.68;3.85;;;;;;;;;;5028078;28;20900;-65
2023/08/02 06:50:07;;;;;;;7.65;3.47;;;;;;;;;;5020433;28;20037;-65
2023/08/02 06:52:33;;;;;;;6.90;3.63;;;;;;;;;;5015745;28;20056;-65
2023/08/02 06:55:00;;;;;;;7.95;3.83;;;;;;;;;;5017192;28;20131;-66
2023/08/02 06:57:31;;;;;;;7.88;3.92;;;;;;;;;;5015876;28;20034;-66
2023/08/02 06:59:57;;;;;;;8.82;4.10;;;;;;;;;;5018279;28;20038;-65
2023/08/02 07:02:24;;;;;;;8.82;4.05;;;;;;;;;;5016413;28;20041;-65
2023/08/02 07:04:50;;;;;;;10.60;4.32;;;;;;;;;;5017919;28;20033;-65
2023/08/02 07:07:17;;;;;;;14.10;4.55;;;;;;;;;;5017921;28;20053;-66
2023/08/02 07:09:47;;;;;;;11.80;4.97;;;;;;;;;;5018183;28;20571;-65
2023/08/02 07:12:14;;;;;;;13.15;5.32;;;;;;;;;;5017756;28;20044;-65
2023/08/02 07:14:40;;;;;;;14.57;6.20;;;;;;;;;;5017340;28;21142;-66
2023/08/02 07:17:07;;;;;;;15.80;7.80;;;;;;;;;;5017180;28;20038;-66
2023/08/02 07:19:34;;;;;;;13.02;7.13;;;;;;;;;;5016743;28;20466;-66
2023/08/02 07:22:01;;;;;;;16.13;7.47;;;;;;;;;;5017872;28;21760;-66
2023/08/02 07:24:28;;;;;;;11.35;6.10;;;;;;;;;;5016437;28;20034;-66
2023/08/02 07:26:54;;;;;;;14.07;6.45;;;;;;;;;;5016993;28;20061;-66
2023/08/02 07:29:21;;;;;;;11.45;5.93;;;;;;;;;;5018240;28;20056;-65
2023/08/02 07:31:48;;;;;;;12.25;5.63;;;;;;;;;;5022016;28;20624;-65
2023/08/02 07:34:14;;;;;;;12.00;5.90;;;;;;;;;;5025749;28;20056;-65
2023/08/02 07:36:41;;;;;;;11.00;5.53;;;;;;;;;;5018682;28;20045;-65
2023/08/02 07:39:07;;;;;;;13.82;6.28;;;;;;;;;;5021960;28;20091;-64
2023/08/02 07:41:34;;;;;;;9.57;4.55;;;;;;;;;;5017681;28;20959;-65
2023/08/02 07:44:01;;;;;;;16.05;4.50;;;;;;;;;;5029229;28;20498;-64
2023/08/02 07:46:27;;;;;;;11.50;4.78;;;;;;;;;;5039598;28;20042;-64
2023/08/02 07:48:55;;;;;;;9.27;4.70;;;;;;;;;;5022805;28;20046;-66
2023/08/02 07:51:21;;;;;;;16.60;4.65;;;;;;;;;;5030557;28;20045;-67
2023/08/02 07:53:49;;;;;;;7.57;4.25;;;;;;;;;;5013879;28;20049;-65
2023/08/02 07:56:16;;;;;;;7.65;4.30;;;;;;;;;;5026493;28;20045;-65
2023/08/02 07:58:42;;;;;;;9.23;4.30;;;;;;;;;;5014687;28;20076;-65
2023/08/02 08:01:09;;;;;;;10.07;4.75;;;;;;;;;;5032226;28;20051;-65
2023/08/02 08:03:36;;;;;;;14.25;4.70;;;;;;;;;;5031134;28;20571;-65
2023/08/02 08:06:10;;;;;;;10.77;4.65;;;;;;;;;;5024764;28;20044;-65
2023/08/02 08:08:36;;;;;;;8.50;4.57;;;;;;;;;;5030771;28;20438;-66
2023/08/02 08:11:03;;;;;;;7.22;4.40;;;;;;;;;;5030325;28;20060;-65
2023/08/02 08:13:30;;;;;;;11.65;4.85;;;;;;;;;;5029874;28;20460;-66
2023/08/02 08:15:56;;;;;;;8.77;4.75;;;;;;;;;;5035291;28;20045;-66
2023/08/02 08:18:23;;;;;;;10.77;4.63;;;;;;;;;;5034225;28;20151;-64
2023/08/02 08:20:49;;;;;;;7.25;4.13;;;;;;;;;;5034062;28;20142;-65
2023/08/02 08:23:16;;;;;;;8.10;4.65;;;;;;;;;;5033216;28;20037;-65
2023/08/02 08:25:43;;;;;;;9.05;4.55;;;;;;;;;;5033716;28;20036;-65
2023/08/02 08:28:09;;;;;;;9.60;5.07;;;;;;;;;;5033266;28;20399;-64
2023/08/02 08:30:36;;;;;;;10.80;4.88;;;;;;;;;;5033821;28;20497;-65
2023/08/02 08:33:02;;;;;;;10.13;4.70;;;;;;;;;;5033706;28;20060;-65
2023/08/02 08:35:29;;;;;;;9.98;4.82;;;;;;;;;;5038856;28;20044;-65
2023/08/02 08:37:56;;;;;;;9.75;5.22;;;;;;;;;;5023431;28;20490;-65
2023/08/02 08:40:22;;;;;;;8.52;4.55;;;;;;;;;;5032516;28;20901;-65
2023/08/02 08:42:49;;;;;;;10.43;4.75;;;;;;;;;;5024164;28;20045;-65
2023/08/02 08:45:18;;;;;;;9.23;4.70;;;;;;;;;;5026547;28;20567;-64
2023/08/02 08:47:45;;;;;;;10.55;5.28;;;;;;;;;;5022914;28;20116;-65
2023/08/02 08:50:12;;;;;;;8.73;4.55;;;;;;;;;;5022953;28;20084;-64
2023/08/02 08:52:41;;;;;;;8.25;4.63;;;;;;;;;;5032866;28;20543;-65
2023/08/02 08:55:13;;;;;;;11.45;4.85;;;;;;;;;;5033477;28;20058;-64
2023/08/02 08:57:40;;;;;;;8.75;4.95;;;;;;;;;;5031020;28;21840;-64
2023/08/02 09:00:08;;;;;;;10.45;4.63;;;;;;;;;;5029266;28;20040;-63
2023/08/02 09:02:35;;;;;;;7.97;4.40;;;;;;;;;;5024791;28;20466;-64
2023/08/02 09:05:04;;;;;;;8.05;4.85;;;;;;;;;;5021804;28;20037;-65
2023/08/02 09:07:31;;;;;;;7.72;4.53;;;;;;;;;;5020493;28;20068;-64
2023/08/02 09:09:58;;;;;;;11.70;4.90;;;;;;;;;;5018322;28;20037;-66
2023/08/02 09:12:28;;;;;;;7.80;4.75;;;;;;;;;;5018890;28;20443;-65
2023/08/02 09:15:05;;;;;;;10.13;4.75;;;;;;;;;;5020103;28;20045;-65
2023/08/02 09:17:51;;;;;;;8.32;4.65;;;;;;;;;;5018980;28;20052;-67
2023/08/02 09:20:22;;;;;;;9.60;4.82;;;;;;;;;;5020905;28;20037;-66
2023/08/02 09:22:49;;;;;;;8.68;4.40;;;;;;;;;;5028708;28;20074;-66
2023/08/02 09:25:25;;;;;;;11.23;5.25;;;;;;;;;;5019576;28;20803;-65
2023/08/02 09:27:52;;;;;;;11.43;5.43;;;;;;;;;;5037597;28;20052;-66
2023/08/02 09:30:33;;;;;;;10.77;4.80;;;;;;;;;;5030213;28;20044;-65
2023/08/02 09:33:04;;;;;;;13.93;5.38;;;;;;;;;;5025291;28;20101;-66
2023/08/02 09:35:51;;;;;;;8.45;4.55;;;;;;;;;;5014486;28;20045;-65
2023/08/02 09:38:17;;;;;;;9.00;4.80;;;;;;;;;;5017159;28;20033;-66
2023/08/02 09:40:48;;;;;;;9.35;4.65;;;;;;;;;;5024408;28;20498;-66
2023/08/02 09:43:15;;;;;;;10.95;4.95;;;;;;;;;;5016130;28;20533;-67
2023/08/02 09:45:42;;;;;;;7.82;4.65;;;;;;;;;;5017726;28;20041;-66
2023/08/02 09:48:09;;;;;;;10.07;5.57;;;;;;;;;;5020627;28;20054;-67
2023/08/02 09:50:51;;;;;;;9.25;4.68;;;;;;;;;;5019948;28;20369;-66
2023/08/02 09:53:18;;;;;;;9.65;4.90;;;;;;;;;;5031918;28;20037;-66
2023/08/02 09:55:47;;;;;;;10.75;4.80;;;;;;;;;;5033237;28;20037;-66
2023/08/02 09:58:14;;;;;;;8.13;4.57;;;;;;;;;;5029023;28;20574;-66
2023/08/02 10:00:41;;;;;;;7.43;4.22;;;;;;;;;;5020191;28;20064;-66
2023/08/02 10:03:07;;;;;;;8.90;4.22;;;;;;;;;;5021322;28;20053;-65
2023/08/02 10:05:36;;;;;;;10.65;5.00;;;;;;;;;;5018385;28;20603;-66
2023/08/02 10:08:03;;;;;;;8.68;4.68;;;;;;;;;;5022895;28;20099;-65
2023/08/02 10:10:30;;;;;;;10.32;4.70;;;;;;;;;;5021468;28;20048;-66
2023/08/02 10:12:58;;;;;;;8.68;5.20;;;;;;;;;;5017944;28;20041;-66
2023/08/02 10:15:25;;;;;;;9.35;5.07;;;;;;;;;;5019009;28;20104;-66
2023/08/02 10:17:52;;;;;;;8.55;4.75;;;;;;;;;;5018245;28;20033;-65
2023/08/02 10:20:21;;;;;;;10.63;5.20;;;;;;;;;;5019665;28;20128;-65
2023/08/02 10:22:48;;;;;;;8.80;4.78;;;;;;;;;;5017306;28;20052;-65
2023/08/02 10:25:17;;;;;;;11.30;5.40;;;;;;;;;;5017717;28;20044;-65
2023/08/02 10:27:45;;;;;;;8.73;4.90;;;;;;;;;;5018541;28;20061;-65
2023/08/02 10:30:12;;;;;;;9.65;5.10;;;;;;;;;;5016764;28;20041;-64
2023/08/02 10:32:39;;;;;;;8.60;4.70;;;;;;;;;;5015997;28;20048;-63
2023/08/02 10:35:06;;;;;;;8.90;5.40;;;;;;;;;;5013051;28;21986;-64
2023/08/02 10:37:52;;;;;;;9.85;4.90;;;;;;;;;;5016150;28;20048;-65
2023/08/02 10:40:21;;;;;;;10.30;5.03;;;;;;;;;;5016160;28;20049;-66
2023/08/02 10:43:07;;;;;;;8.80;4.97;;;;;;;;;;5023019;28;20042;-65
2023/08/02 10:45:34;;;;;;;8.15;4.90;;;;;;;;;;5010270;28;20160;-65
2023/08/02 10:48:19;;;;;;;8.65;4.80;;;;;;;;;;5011205;28;20046;-64
2023/08/02 10:50:48;;;;;;;9.93;4.90;;;;;;;;;;5012181;28;20033;-66
2023/08/02 10:53:15;;;;;;;13.45;5.88;;;;;;;;;;5012157;28;20231;-64
2023/08/02 10:56:00;;;;;;;8.90;5.05;;;;;;;;;;5028797;28;20175;-65
2023/08/02 10:58:26;;;;;;;9.95;5.18;;;;;;;;;;5031240;28;20607;-65
2023/08/02 11:01:10;;;;;;;9.13;4.82;;;;;;;;;;5030775;28;20037;-65
2023/08/02 11:03:38;;;;;;;9.85;5.20;;;;;;;;;;5025495;28;20045;-65
2023/08/02 11:06:05;;;;;;;9.50;5.32;;;;;;;;;;5030605;28;20047;-66
2023/08/02 11:08:45;;;;;;;9.93;4.93;;;;;;;;;;5030843;28;20135;-65
2023/08/02 11:11:11;;;;;;;8.40;5.18;;;;;;;;;;5031493;28;20490;-65
2023/08/02 11:13:42;;;;;;;9.77;5.22;;;;;;;;;;5031081;28;20136;-65
2023/08/02 11:16:09;;;;;;;8.57;5.13;;;;;;;;;;5031076;28;20646;-65
2023/08/02 11:18:36;;;;;;;10.35;5.43;;;;;;;;;;5014753;28;20037;-65
2023/08/02 11:21:12;;;;;;;11.40;5.72;;;;;;;;;;5027283;28;20037;-66
2023/08/02 11:23:39;;;;;;;8.35;4.90;;;;;;;;;;5027499;28;20067;-65
2023/08/02 11:26:09;;;;;;;9.18;5.43;;;;;;;;;;5013271;28;20408;-64
2023/08/02 11:28:40;;;;;;;13.18;5.65;;;;;;;;;;5027166;28;20052;-64
2023/08/02 11:31:07;;;;;;;9.38;5.60;;;;;;;;;;5032197;28;20492;-65
2023/08/02 11:33:33;;;;;;;13.27;5.47;;;;;;;;;;5029741;28;20047;-65
2023/08/02 11:36:00;;;;;;;12.32;5.78;;;;;;;;;;5011703;28;20042;-65
2023/08/02 11:38:26;;;;;;;9.00;5.38;;;;;;;;;;5025012;28;20098;-65
2023/08/02 11:40:53;;;;;;;13.85;5.65;;;;;;;;;;5031238;28;20048;-65
2023/08/02 11:43:33;;;;;;;9.25;5.55;;;;;;;;;;5030268;28;20033;-65
2023/08/02 11:45:59;;;;;;;10.73;5.60;;;;;;;;;;5018016;28;20041;-65
2023/08/02 11:48:26;;;;;;;9.60;5.47;;;;;;;;;;5012097;28;20053;-65
2023/08/02 11:50:54;;;;;;;12.30;6.00;;;;;;;;;;5027708;28;20033;-66
2023/08/02 11:53:20;;;;;;;10.18;5.93;;;;;;;;;;5014495;28;20609;-66
2023/08/02 11:55:47;;;;;;;10.93;5.20;;;;;;;;;;5016945;28;20524;-65
2023/08/02 11:58:14;;;;;;;10.25;5.95;;;;;;;;;;5029773;28;21015;-63
2023/08/02 12:00:40;;;;;;;12.05;5.82;;;;;;;;;;5034462;28;20046;-64
2023/08/02 12:03:12;;;;;;;12.18;5.93;;;;;;;;;;5033470;28;20033;-63
2023/08/02 12:05:38;;;;;;;9.73;5.57;;;;;;;;;;5037138;28;20494;-65
2023/08/02 12:08:12;;;;;;;11.68;5.55;;;;;;;;;;5036146;28;20058;-66
2023/08/02 12:10:39;;;;;;;12.10;5.60;;;;;;;;;;5036565;28;20179;-65
2023/08/02 12:13:14;;;;;;;17.77;5.93;;;;;;;;;;5036636;28;20056;-64
2023/08/02 12:16:01;;;;;;;11.40;5.22;;;;;;;;;;5034067;28;20033;-64
2023/08/02 12:18:27;;;;;;;15.57;5.63;;;;;;;;;;5033698;28;20048;-64
2023/08/02 12:20:54;;;;;;;10.55;5.07;;;;;;;;;;5038135;28;20041;-62
2023/08/02 12:23:31;;;;;;;11.15;5.47;;;;;;;;;;5057446;28;20040;-63
2023/08/02 12:25:57;;;;;;;11.85;5.85;;;;;;;;;;5034375;28;20045;-66
2023/08/02 12:28:24;;;;;;;18.23;6.20;;;;;;;;;;5036783;28;20049;-65
2023/08/02 12:31:06;;;;;;;9.30;5.45;;;;;;;;;;5039035;28;20056;-65
2023/08/02 12:33:32;;;;;;;14.85;5.70;;;;;;;;;;5040971;28;20033;-64
2023/08/02 12:35:59;;;;;;;12.95;5.82;;;;;;;;;;5041217;28;20038;-62
2023/08/02 12:38:29;;;;;;;16.58;6.60;;;;;;;;;;5042049;28;20037;-64
2023/08/02 12:40:59;;;;;;;14.18;6.28;;;;;;;;;;5041114;28;20064;-65
2023/08/02 12:43:27;;;;;;;15.77;5.88;;;;;;;;;;5039433;28;20087;-64
2023/08/02 12:45:54;;;;;;;12.82;5.78;;;;;;;;;;5039290;28;20067;-65
2023/08/02 12:48:21;;;;;;;14.27;6.20;;;;;;;;;;5042575;28;20053;-64
2023/08/02 12:50:47;;;;;;;16.00;6.25;;;;;;;;;;5042849;28;20040;-64
2023/08/02 12:53:14;;;;;;;23.27;6.15;;;;;;;;;;5041802;28;20072;-63
2023/08/02 12:55:41;;;;;;;13.93;5.65;;;;;;;;;;5033784;28;20036;-65
2023/08/02 12:58:08;;;;;;;12.77;5.60;;;;;;;;;;5039898;28;20394;-65
2023/08/02 13:00:34;;;;;;;13.75;5.40;;;;;;;;;;5038007;28;20087;-65
2023/08/02 13:03:01;;;;;;;16.77;5.75;;;;;;;;;;5040145;28;20037;-63
2023/08/02 13:05:27;;;;;;;10.52;5.30;;;;;;;;;;5027607;28;20045;-64
2023/08/02 13:07:54;;;;;;;10.50;5.35;;;;;;;;;;5020081;28;20041;-65
2023/08/02 13:10:21;;;;;;;11.65;6.03;;;;;;;;;;5019436;28;20046;-65
2023/08/02 13:12:47;;;;;;;9.27;5.32;;;;;;;;;;5020690;28;20059;-65
2023/08/02 13:15:14;;;;;;;11.45;5.68;;;;;;;;;;5017547;28;20044;-65
2023/08/02 13:17:42;;;;;;;12.25;5.75;;;;;;;;;;5022909;28;20044;-63
2023/08/02 13:20:09;;;;;;;9.10;5.35;;;;;;;;;;5042251;28;20203;-62
2023/08/02 13:22:36;;;;;;;9.40;5.03;;;;;;;;;;5034365;28;20394;-64
2023/08/02 13:25:03;;;;;;;11.75;5.45;;;;;;;;;;5024003;28;20041;-62
2023/08/02 13:27:32;;;;;;;8.85;5.22;;;;;;;;;;5030884;28;20643;-61
2023/08/02 13:30:00;;;;;;;8.98;5.10;;;;;;;;;;5034306;28;20479;-61
2023/08/02 13:32:28;;;;;;;8.45;4.50;;;;;;;;;;5036094;28;20091;-61
2023/08/02 13:34:55;;;;;;;12.85;5.35;;;;;;;;;;5031101;28;20199;-63
2023/08/02 13:37:21;;;;;;;11.23;4.80;;;;;;;;;;5025277;28;20133;-64
2023/08/02 13:39:48;;;;;;;8.57;4.90;;;;;;;;;;5023307;28;20272;-62
2023/08/02 13:42:15;;;;;;;11.32;5.28;;;;;;;;;;5028111;28;20128;-63
2023/08/02 13:44:41;;;;;;;8.55;5.00;;;;;;;;;;5024266;28;20107;-63
2023/08/02 13:47:08;;;;;;;9.98;4.97;;;;;;;;;;5027634;28;20037;-63
2023/08/02 13:49:34;;;;;;;10.63;4.75;;;;;;;;;;5019269;28;20041;-63
2023/08/02 13:52:01;;;;;;;8.52;4.70;;;;;;;;;;5033274;28;20041;-64
2023/08/02 13:54:28;;;;;;;9.60;5.13;;;;;;;;;;5020193;28;20038;-65
2023/08/02 13:56:55;;;;;;;11.60;4.90;;;;;;;;;;5023330;28;20033;-64
2023/08/02 13:59:22;;;;;;;12.00;5.10;;;;;;;;;;5026874;28;20049;-65
2023/08/02 14:01:49;;;;;;;10.10;4.70;;;;;;;;;;5026169;28;20044;-64
2023/08/02 14:04:15;;;;;;;11.27;4.68;;;;;;;;;;5023979;28;20053;-60
2023/08/02 14:06:42;;;;;;;9.70;4.60;;;;;;;;;;5022532;28;20286;-61
2023/08/02 14:09:09;;;;;;;8.98;4.97;;;;;;;;;;5021821;28;20077;-63
2023/08/02 14:11:36;;;;;;;11.07;4.40;;;;;;;;;;5020847;28;20322;-65
2023/08/02 14:14:02;;;;;;;8.85;4.70;;;;;;;;;;5022615;28;20041;-64
2023/08/02 14:16:29;;;;;;;10.52;5.13;;;;;;;;;;5023814;28;20041;-65
2023/08/02 14:18:56;;;;;;;9.60;4.78;;;;;;;;;;5021562;28;20037;-65
2023/08/02 14:21:22;;;;;;;6.95;3.95;;;;;;;;;;5021594;28;20134;-66
2023/08/02 14:23:49;;;;;;;8.02;4.20;;;;;;;;;;5021363;28;20402;-65
2023/08/02 14:26:16;;;;;;;7.72;4.28;;;;;;;;;;5021823;28;20531;-64
2023/08/02 14:28:42;;;;;;;18.23;4.65;;;;;;;;;;5022248;28;20143;-65
2023/08/02 14:31:09;;;;;;;6.53;3.60;;;;;;;;;;5024024;28;20048;-66
2023/08/02 14:33:35;;;;;;;8.60;4.55;;;;;;;;;;5038392;28;20428;-65
2023/08/02 14:36:02;;;;;;;8.00;4.35;;;;;;;;;;5019659;28;20826;-65
2023/08/02 14:38:29;;;;;;;9.80;4.30;;;;;;;;;;5021770;28;20041;-66
2023/08/02 14:40:55;;;;;;;7.32;4.10;;;;;;;;;;5022185;28;20809;-67
2023/08/02 14:43:22;;;;;;;8.55;4.28;;;;;;;;;;5016710;28;20051;-66
2023/08/02 14:45:48;;;;;;;8.05;4.05;;;;;;;;;;5020523;28;20045;-66
2023/08/02 14:48:15;;;;;;;8.38;4.03;;;;;;;;;;5017088;28;20060;-66
2023/08/02 14:50:42;;;;;;;6.88;3.45;;;;;;;;;;5020829;28;20045;-65
2023/08/02 14:53:08;;;;;;;8.05;4.20;;;;;;;;;;5019256;28;20421;-65
2023/08/02 14:55:36;;;;;;;8.93;4.15;;;;;;;;;;5016376;28;20298;-65
2023/08/02 14:58:02;;;;;;;7.03;3.95;;;;;;;;;;5019725;28;20045;-67
2023/08/02 15:00:29;;;;;;;14.13;4.65;;;;;;;;;;5021106;28;21022;-66
2023/08/02 15:02:56;;;;;;;9.73;4.20;;;;;;;;;;5021909;28;20478;-66
2023/08/02 15:05:22;;;;;;;8.88;3.78;;;;;;;;;;5026348;28;20141;-65
2023/08/02 15:07:49;;;;;;;7.60;4.10;;;;;;;;;;5034719;28;20072;-65
2023/08/02 15:10:16;;;;;;;7.60;3.83;;;;;;;;;;5030381;28;20486;-65
2023/08/02 15:12:43;;;;;;;6.75;3.70;;;;;;;;;;5030499;28;20584;-65
2023/08/02 15:15:12;;;;;;;9.45;4.25;;;;;;;;;;5042006;28;20103;-66
2023/08/02 15:17:41;;;;;;;8.38;3.75;;;;;;;;;;5025788;28;20041;-67
2023/08/02 15:20:09;;;;;;;7.63;3.70;;;;;;;;;;5029924;28;20057;-64
2023/08/02 15:22:35;;;;;;;7.97;3.95;;;;;;;;;;5023077;28;20033;-65
2023/08/02 15:25:04;;;;;;;8.07;4.10;;;;;;;;;;5024512;28;20049;-66
2023/08/02 15:27:31;;;;;;;6.82;3.70;;;;;;;;;;5023718;28;20049;-66
2023/08/02 15:29:58;;;;;;;11.93;3.95;;;;;;;;;;5022000;28;20072;-66
2023/08/02 15:32:24;;;;;;;12.80;4.25;;;;;;;;;;5021964;28;20041;-66
2023/08/02 15:34:51;;;;;;;9.00;4.03;;;;;;;;;;5022097;28;20041;-66
2023/08/02 15:37:18;;;;;;;8.43;3.85;;;;;;;;;;5019923;28;20049;-68
2023/08/02 15:39:45;;;;;;;7.18;4.13;;;;;;;;;;5018450;28;20033;-65
2023/08/02 15:42:12;;;;;;;6.80;3.75;;;;;;;;;;5020796;28;20048;-64
2023/08/02 15:44:39;;;;;;;8.23;4.13;;;;;;;;;;5019803;28;20037;-64
2023/08/02 15:47:06;;;;;;;9.43;3.92;;;;;;;;;;5022592;28;20390;-64
2023/08/02 15:49:33;;;;;;;11.85;3.97;;;;;;;;;;5032206;28;20037;-64
2023/08/02 15:52:00;;;;;;;7.35;3.38;;;;;;;;;;5030567;28;21020;-66
2023/08/02 15:54:26;;;;;;;8.52;4.07;;;;;;;;;;5025844;28;20041;-65
2023/08/02 15:56:53;;;;;;;6.85;3.65;;;;;;;;;;5026577;28;20053;-65
2023/08/02 15:59:19;;;;;;;6.50;3.60;;;;;;;;;;5020460;28;20041;-65
2023/08/02 16:01:48;;;;;;;7.22;3.50;;;;;;;;;;5018751;28;20842;-66
2023/08/02 16:04:15;;;;;;;6.57;3.50;;;;;;;;;;5018505;28;20038;-66
2023/08/02 16:06:41;;;;;;;6.80;3.38;;;;;;;;;;5017950;28;20053;-66
2023/08/02 16:09:08;;;;;;;6.40;3.47;;;;;;;;;;5028208;28;20049;-66
2023/08/02 16:11:35;;;;;;;8.40;3.45;;;;;;;;;;5017712;28;20486;-65
2023/08/02 16:14:01;;;;;;;7.13;3.25;;;;;;;;;;5018047;28;20133;-65
2023/08/02 16:16:28;;;;;;;6.75;3.60;;;;;;;;;;5016012;28;20044;-65
2023/08/02 16:18:55;;;;;;;7.15;3.40;;;;;;;;;;5030601;28;20204;-64
2023/08/02 16:21:21;;;;;;;21.60;4.95;;;;;;;;;;5018629;28;20033;-65
2023/08/02 16:23:48;;;;;;;12.68;3.33;;;;;;;;;;5017647;28;20085;-66
2023/08/02 16:26:15;;;;;;;17.33;4.95;;;;;;;;;;5013763;28;20883;-65
2023/08/02 16:28:42;;;;;;;6.97;3.33;;;;;;;;;;5031301;28;20103;-64
2023/08/02 16:31:08;;;;;;;7.60;3.10;;;;;;;;;;5017279;28;20039;-65
2023/08/02 16:33:35;;;;;;;9.48;3.67;;;;;;;;;;5027410;28;20068;-64
2023/08/02 16:36:01;;;;;;;9.95;3.30;;;;;;;;;;5019576;28;20160;-64
2023/08/02 16:38:28;;;;;;;7.88;2.90;;;;;;;;;;5018823;28;20098;-64
2023/08/02 16:40:55;;;;;;;14.20;3.47;;;;;;;;;;5024392;28;20041;-64